sensor_id;sensor_type;location;lat;lon;timestamp;P1;durP1;ratioP1;P2;durP2;ratioP2
30020;SDS011;16861;52.294;7.760;2024-01-16T00:02:07;4.43;;;1.20;;
30020;SDS011;16861;52.294;7.760;2024-01-16T00:04:38;4.07;;;1.15;;
30020;SDS011;16861;52.294;7.760;2024-01-16T00:07:06;3.40;;;1.25;;
30020;SDS011;16861;52.294;7.760;2024-01-16T00:09:33;3.58;;;1.45;;
30020;SDS011;16861;52.294;7.760;2024-01-16T00:12:01;7.28;;;1.38;;
30020;SDS011;16861;52.294;7.760;2024-01-16T00:14:29;5.93;;;1.10;;
30020;SDS011;16861;52.294;7.760;2024-01-16T00:16:56;6.03;;;1.30;;
30020;SDS011;16861;52.294;7.760;2024-01-16T00:19:23;3.97;;;1.50;;
30020;SDS011;16861;52.294;7.760;2024-01-16T00:21:49;5.05;;;1.45;;
30020;SDS011;16861;52.294;7.760;2024-01-16T00:24:17;5.50;;;2.17;;
30020;SDS011;16861;52.294;7.760;2024-01-16T00:26:44;7.15;;;1.80;;
30020;SDS011;16861;52.294;7.760;2024-01-16T00:29:11;7.88;;;1.95;;
30020;SDS011;16861;52.294;7.760;2024-01-16T00:31:39;5.72;;;1.50;;
30020;SDS011;16861;52.294;7.760;2024-01-16T00:34:05;7.70;;;2.05;;
30020;SDS011;16861;52.294;7.760;2024-01-16T00:36:32;11.32;;;1.58;;
30020;SDS011;16861;52.294;7.760;2024-01-16T00:38:58;8.57;;;1.90;;
30020;SDS011;16861;52.294;7.760;2024-01-16T00:41:25;9.05;;;1.90;;
30020;SDS011;16861;52.294;7.760;2024-01-16T00:43:51;10.40;;;1.65;;
30020;SDS011;16861;52.294;7.760;2024-01-16T00:46:18;7.93;;;2.25;;
30020;SDS011;16861;52.294;7.760;2024-01-16T00:48:44;11.20;;;2.50;;
30020;SDS011;16861;52.294;7.760;2024-01-16T00:51:11;5.88;;;1.70;;
30020;SDS011;16861;52.294;7.760;2024-01-16T00:53:39;5.70;;;1.50;;
30020;SDS011;16861;52.294;7.760;2024-01-16T00:56:09;6.65;;;1.85;;
30020;SDS011;16861;52.294;7.760;2024-01-16T00:58:37;10.65;;;2.17;;
30020;SDS011;16861;52.294;7.760;2024-01-16T01:01:04;8.57;;;2.08;;
30020;SDS011;16861;52.294;7.760;2024-01-16T01:03:30;7.72;;;2.45;;
30020;SDS011;16861;52.294;7.760;2024-01-16T01:05:57;8.77;;;2.40;;
30020;SDS011;16861;52.294;7.760;2024-01-16T01:08:24;7.40;;;2.38;;
30020;SDS011;16861;52.294;7.760;2024-01-16T01:10:51;7.70;;;2.38;;
30020;SDS011;16861;52.294;7.760;2024-01-16T01:13:17;10.70;;;2.80;;
30020;SDS011;16861;52.294;7.760;2024-01-16T01:15:44;7.85;;;2.67;;
30020;SDS011;16861;52.294;7.760;2024-01-16T01:18:10;7.85;;;2.40;;
30020;SDS011;16861;52.294;7.760;2024-01-16T01:20:37;13.52;;;2.88;;
30020;SDS011;16861;52.294;7.760;2024-01-16T01:23:04;12.23;;;2.65;;
30020;SDS011;16861;52.294;7.760;2024-01-16T01:25:30;8.85;;;2.90;;
30020;SDS011;16861;52.294;7.760;2024-01-16T01:27:57;7.88;;;2.50;;
30020;SDS011;16861;52.294;7.760;2024-01-16T01:30:23;10.82;;;2.75;;
30020;SDS011;16861;52.294;7.760;2024-01-16T01:32:50;12.30;;;3.03;;
30020;SDS011;16861;52.294;7.760;2024-01-16T01:35:17;10.30;;;2.67;;
30020;SDS011;16861;52.294;7.760;2024-01-16T01:37:46;9.98;;;2.78;;
30020;SDS011;16861;52.294;7.760;2024-01-16T01:40:12;8.73;;;2.30;;
30020;SDS011;16861;52.294;7.760;2024-01-16T01:42:42;7.07;;;2.70;;
30020;SDS011;16861;52.294;7.760;2024-01-16T01:45:09;10.13;;;2.53;;
30020;SDS011;16861;52.294;7.760;2024-01-16T01:47:37;12.35;;;3.55;;
30020;SDS011;16861;52.294;7.760;2024-01-16T01:50:10;14.13;;;3.17;;
30020;SDS011;16861;52.294;7.760;2024-01-16T01:52:38;11.60;;;2.50;;
30020;SDS011;16861;52.294;7.760;2024-01-16T01:55:07;7.13;;;2.72;;
30020;SDS011;16861;52.294;7.760;2024-01-16T01:57:38;10.68;;;3.15;;
30020;SDS011;16861;52.294;7.760;2024-01-16T02:00:05;9.45;;;2.75;;
30020;SDS011;16861;52.294;7.760;2024-01-16T02:02:32;15.20;;;3.00;;
30020;SDS011;16861;52.294;7.760;2024-01-16T02:04:59;8.35;;;3.13;;
30020;SDS011;16861;52.294;7.760;2024-01-16T02:07:26;14.57;;;3.80;;
30020;SDS011;16861;52.294;7.760;2024-01-16T02:09:53;11.95;;;3.55;;
30020;SDS011;16861;52.294;7.760;2024-01-16T02:12:19;6.57;;;2.90;;
30020;SDS011;16861;52.294;7.760;2024-01-16T02:14:50;13.73;;;3.30;;
30020;SDS011;16861;52.294;7.760;2024-01-16T02:17:17;8.38;;;3.20;;
30020;SDS011;16861;52.294;7.760;2024-01-16T02:19:43;12.05;;;3.80;;
30020;SDS011;16861;52.294;7.760;2024-01-16T02:22:11;10.05;;;2.97;;
30020;SDS011;16861;52.294;7.760;2024-01-16T02:24:45;17.05;;;3.40;;
30020;SDS011;16861;52.294;7.760;2024-01-16T02:27:12;10.65;;;3.17;;
30020;SDS011;16861;52.294;7.760;2024-01-16T02:29:42;16.52;;;3.42;;
30020;SDS011;16861;52.294;7.760;2024-01-16T02:32:11;8.90;;;3.17;;
30020;SDS011;16861;52.294;7.760;2024-01-16T02:34:39;16.30;;;3.40;;
30020;SDS011;16861;52.294;7.760;2024-01-16T02:37:06;11.55;;;3.25;;
30020;SDS011;16861;52.294;7.760;2024-01-16T02:39:32;10.68;;;3.17;;
30020;SDS011;16861;52.294;7.760;2024-01-16T02:41:59;6.47;;;2.80;;
30020;SDS011;16861;52.294;7.760;2024-01-16T02:44:25;9.15;;;2.60;;
30020;SDS011;16861;52.294;7.760;2024-01-16T02:46:52;14.02;;;2.83;;
30020;SDS011;16861;52.294;7.760;2024-01-16T02:49:19;10.15;;;2.92;;
30020;SDS011;16861;52.294;7.760;2024-01-16T02:51:45;7.38;;;3.13;;
30020;SDS011;16861;52.294;7.760;2024-01-16T02:54:12;7.38;;;3.08;;
30020;SDS011;16861;52.294;7.760;2024-01-16T02:56:38;11.40;;;2.53;;
30020;SDS011;16861;52.294;7.760;2024-01-16T02:59:05;10.02;;;3.00;;
30020;SDS011;16861;52.294;7.760;2024-01-16T03:01:31;10.10;;;3.35;;
30020;SDS011;16861;52.294;7.760;2024-01-16T03:03:58;14.57;;;2.72;;
30020;SDS011;16861;52.294;7.760;2024-01-16T03:06:25;11.98;;;3.50;;
30020;SDS011;16861;52.294;7.760;2024-01-16T03:08:52;6.68;;;2.67;;
30020;SDS011;16861;52.294;7.760;2024-01-16T03:11:18;11.23;;;3.33;;
30020;SDS011;16861;52.294;7.760;2024-01-16T03:13:45;11.07;;;3.25;;
30020;SDS011;16861;52.294;7.760;2024-01-16T03:16:11;6.30;;;2.85;;
30020;SDS011;16861;52.294;7.760;2024-01-16T03:18:38;10.68;;;2.83;;
30020;SDS011;16861;52.294;7.760;2024-01-16T03:21:05;12.98;;;3.33;;
30020;SDS011;16861;52.294;7.760;2024-01-16T03:23:32;9.75;;;3.55;;
30020;SDS011;16861;52.294;7.760;2024-01-16T03:25:59;7.95;;;3.28;;
30020;SDS011;16861;52.294;7.760;2024-01-16T03:28:25;10.15;;;3.60;;
30020;SDS011;16861;52.294;7.760;2024-01-16T03:30:52;8.00;;;3.55;;
30020;SDS011;16861;52.294;7.760;2024-01-16T03:33:18;13.80;;;3.97;;
30020;SDS011;16861;52.294;7.760;2024-01-16T03:35:45;11.43;;;4.10;;
30020;SDS011;16861;52.294;7.760;2024-01-16T03:38:13;13.98;;;5.25;;
30020;SDS011;16861;52.294;7.760;2024-01-16T03:40:43;10.93;;;4.50;;
30020;SDS011;16861;52.294;7.760;2024-01-16T03:43:09;15.02;;;4.70;;
30020;SDS011;16861;52.294;7.760;2024-01-16T03:45:36;12.77;;;4.00;;
30020;SDS011;16861;52.294;7.760;2024-01-16T03:48:02;12.75;;;4.15;;
30020;SDS011;16861;52.294;7.760;2024-01-16T03:50:30;12.27;;;4.60;;
30020;SDS011;16861;52.294;7.760;2024-01-16T03:52:56;13.00;;;4.28;;
30020;SDS011;16861;52.294;7.760;2024-01-16T03:55:23;12.73;;;5.03;;
30020;SDS011;16861;52.294;7.760;2024-01-16T03:57:49;13.95;;;4.93;;
30020;SDS011;16861;52.294;7.760;2024-01-16T04:00:17;7.43;;;4.05;;
30020;SDS011;16861;52.294;7.760;2024-01-16T04:02:44;9.13;;;4.35;;
30020;SDS011;16861;52.294;7.760;2024-01-16T04:05:10;10.60;;;5.00;;
30020;SDS011;16861;52.294;7.760;2024-01-16T04:07:37;10.45;;;4.95;;
30020;SDS011;16861;52.294;7.760;2024-01-16T04:10:05;12.23;;;4.93;;
30020;SDS011;16861;52.294;7.760;2024-01-16T04:12:32;15.00;;;5.47;;
30020;SDS011;16861;52.294;7.760;2024-01-16T04:14:59;12.98;;;5.65;;
30020;SDS011;16861;52.294;7.760;2024-01-16T04:17:25;14.70;;;5.65;;
30020;SDS011;16861;52.294;7.760;2024-01-16T04:19:52;12.85;;;6.05;;
30020;SDS011;16861;52.294;7.760;2024-01-16T04:22:18;11.77;;;5.68;;
30020;SDS011;16861;52.294;7.760;2024-01-16T04:24:45;10.82;;;5.38;;
30020;SDS011;16861;52.294;7.760;2024-01-16T04:27:13;10.95;;;5.30;;
30020;SDS011;16861;52.294;7.760;2024-01-16T04:29:39;11.63;;;4.53;;
30020;SDS011;16861;52.294;7.760;2024-01-16T04:32:06;9.93;;;4.68;;
30020;SDS011;16861;52.294;7.760;2024-01-16T04:34:33;13.95;;;4.68;;
30020;SDS011;16861;52.294;7.760;2024-01-16T04:37:00;12.77;;;4.43;;
30020;SDS011;16861;52.294;7.760;2024-01-16T04:39:27;12.98;;;4.28;;
30020;SDS011;16861;52.294;7.760;2024-01-16T04:41:53;18.17;;;4.78;;
30020;SDS011;16861;52.294;7.760;2024-01-16T04:44:20;14.45;;;4.28;;
30020;SDS011;16861;52.294;7.760;2024-01-16T04:46:47;15.45;;;3.97;;
30020;SDS011;16861;52.294;7.760;2024-01-16T04:49:13;18.63;;;5.95;;
30020;SDS011;16861;52.294;7.760;2024-01-16T04:51:40;10.88;;;4.55;;
30020;SDS011;16861;52.294;7.760;2024-01-16T04:54:07;15.25;;;5.00;;
30020;SDS011;16861;52.294;7.760;2024-01-16T04:56:33;11.05;;;4.90;;
30020;SDS011;16861;52.294;7.760;2024-01-16T04:59:00;11.13;;;5.07;;
30020;SDS011;16861;52.294;7.760;2024-01-16T05:01:27;13.30;;;3.92;;
30020;SDS011;16861;52.294;7.760;2024-01-16T05:03:53;9.68;;;4.63;;
30020;SDS011;16861;52.294;7.760;2024-01-16T05:06:21;14.48;;;5.13;;
30020;SDS011;16861;52.294;7.760;2024-01-16T05:08:47;12.65;;;4.80;;
30020;SDS011;16861;52.294;7.760;2024-01-16T05:11:14;11.90;;;5.10;;
30020;SDS011;16861;52.294;7.760;2024-01-16T05:13:41;10.63;;;5.63;;
30020;SDS011;16861;52.294;7.760;2024-01-16T05:16:07;12.38;;;5.00;;
30020;SDS011;16861;52.294;7.760;2024-01-16T05:18:34;10.35;;;4.95;;
30020;SDS011;16861;52.294;7.760;2024-01-16T05:21:01;13.13;;;5.32;;
30020;SDS011;16861;52.294;7.760;2024-01-16T05:23:28;12.98;;;5.22;;
30020;SDS011;16861;52.294;7.760;2024-01-16T05:25:55;13.57;;;5.80;;
30020;SDS011;16861;52.294;7.760;2024-01-16T05:28:22;13.55;;;5.88;;
30020;SDS011;16861;52.294;7.760;2024-01-16T05:30:48;14.10;;;5.47;;
30020;SDS011;16861;52.294;7.760;2024-01-16T05:33:15;11.05;;;5.95;;
30020;SDS011;16861;52.294;7.760;2024-01-16T05:35:42;15.98;;;6.22;;
30020;SDS011;16861;52.294;7.760;2024-01-16T05:38:09;18.52;;;6.50;;
30020;SDS011;16861;52.294;7.760;2024-01-16T05:40:38;12.73;;;6.43;;
30020;SDS011;16861;52.294;7.760;2024-01-16T05:43:05;15.65;;;6.60;;
30020;SDS011;16861;52.294;7.760;2024-01-16T05:45:32;15.10;;;7.88;;
30020;SDS011;16861;52.294;7.760;2024-01-16T05:47:59;14.77;;;7.25;;
30020;SDS011;16861;52.294;7.760;2024-01-16T05:50:26;15.55;;;7.88;;
30020;SDS011;16861;52.294;7.760;2024-01-16T05:52:52;19.88;;;8.27;;
30020;SDS011;16861;52.294;7.760;2024-01-16T05:55:19;16.90;;;8.13;;
30020;SDS011;16861;52.294;7.760;2024-01-16T05:57:47;14.32;;;7.80;;
30020;SDS011;16861;52.294;7.760;2024-01-16T06:00:14;18.13;;;7.85;;
30020;SDS011;16861;52.294;7.760;2024-01-16T06:02:41;13.82;;;8.05;;
30020;SDS011;16861;52.294;7.760;2024-01-16T06:05:07;17.27;;;8.68;;
30020;SDS011;16861;52.294;7.760;2024-01-16T06:07:34;16.25;;;8.52;;
30020;SDS011;16861;52.294;7.760;2024-01-16T06:10:00;17.38;;;8.52;;
30020;SDS011;16861;52.294;7.760;2024-01-16T06:12:28;17.40;;;8.65;;
30020;SDS011;16861;52.294;7.760;2024-01-16T06:14:55;15.45;;;8.43;;
30020;SDS011;16861;52.294;7.760;2024-01-16T06:20:07;17.80;;;9.63;;
30020;SDS011;16861;52.294;7.760;2024-01-16T06:22:33;16.60;;;9.23;;
30020;SDS011;16861;52.294;7.760;2024-01-16T06:25:00;17.08;;;9.30;;
30020;SDS011;16861;52.294;7.760;2024-01-16T06:27:28;18.55;;;9.75;;
30020;SDS011;16861;52.294;7.760;2024-01-16T06:29:54;20.75;;;9.13;;
30020;SDS011;16861;52.294;7.760;2024-01-16T06:32:21;14.00;;;9.00;;
30020;SDS011;16861;52.294;7.760;2024-01-16T06:34:48;20.08;;;9.10;;
30020;SDS011;16861;52.294;7.760;2024-01-16T06:37:15;21.63;;;9.82;;
30020;SDS011;16861;52.294;7.760;2024-01-16T06:39:41;20.70;;;9.98;;
30020;SDS011;16861;52.294;7.760;2024-01-16T06:42:08;14.00;;;9.02;;
30020;SDS011;16861;52.294;7.760;2024-01-16T06:44:36;16.00;;;8.90;;
30020;SDS011;16861;52.294;7.760;2024-01-16T06:47:03;21.30;;;9.80;;
30020;SDS011;16861;52.294;7.760;2024-01-16T06:49:30;15.75;;;9.25;;
30020;SDS011;16861;52.294;7.760;2024-01-16T06:51:56;19.38;;;8.63;;
30020;SDS011;16861;52.294;7.760;2024-01-16T06:54:23;17.58;;;10.18;;
30020;SDS011;16861;52.294;7.760;2024-01-16T06:56:50;20.50;;;8.77;;
30020;SDS011;16861;52.294;7.760;2024-01-16T06:59:17;16.83;;;8.52;;
30020;SDS011;16861;52.294;7.760;2024-01-16T07:01:46;23.15;;;9.38;;
30020;SDS011;16861;52.294;7.760;2024-01-16T07:04:12;16.45;;;9.30;;
30020;SDS011;16861;52.294;7.760;2024-01-16T07:06:40;17.25;;;8.88;;
30020;SDS011;16861;52.294;7.760;2024-01-16T07:09:07;18.38;;;9.45;;
30020;SDS011;16861;52.294;7.760;2024-01-16T07:11:37;18.63;;;9.27;;
30020;SDS011;16861;52.294;7.760;2024-01-16T07:14:06;23.23;;;10.13;;
30020;SDS011;16861;52.294;7.760;2024-01-16T07:16:34;15.38;;;9.40;;
30020;SDS011;16861;52.294;7.760;2024-01-16T07:19:01;14.90;;;8.85;;
30020;SDS011;16861;52.294;7.760;2024-01-16T07:21:28;14.48;;;8.38;;
30020;SDS011;16861;52.294;7.760;2024-01-16T07:23:55;16.65;;;8.77;;
30020;SDS011;16861;52.294;7.760;2024-01-16T07:26:22;16.50;;;8.95;;
30020;SDS011;16861;52.294;7.760;2024-01-16T07:28:49;15.18;;;9.07;;
30020;SDS011;16861;52.294;7.760;2024-01-16T07:31:16;17.58;;;8.80;;
30020;SDS011;16861;52.294;7.760;2024-01-16T07:33:42;17.20;;;8.77;;
30020;SDS011;16861;52.294;7.760;2024-01-16T07:36:10;19.67;;;8.45;;
30020;SDS011;16861;52.294;7.760;2024-01-16T07:38:38;16.10;;;8.07;;
30020;SDS011;16861;52.294;7.760;2024-01-16T07:41:04;15.60;;;7.68;;
30020;SDS011;16861;52.294;7.760;2024-01-16T07:43:32;20.15;;;9.10;;
30020;SDS011;16861;52.294;7.760;2024-01-16T07:45:58;17.55;;;7.95;;
30020;SDS011;16861;52.294;7.760;2024-01-16T07:48:25;16.33;;;8.70;;
30020;SDS011;16861;52.294;7.760;2024-01-16T07:50:52;18.40;;;8.45;;
30020;SDS011;16861;52.294;7.760;2024-01-16T07:53:19;17.65;;;8.15;;
30020;SDS011;16861;52.294;7.760;2024-01-16T07:55:45;16.60;;;8.30;;
30020;SDS011;16861;52.294;7.760;2024-01-16T07:58:12;14.10;;;7.55;;
30020;SDS011;16861;52.294;7.760;2024-01-16T08:00:39;12.35;;;7.15;;
30020;SDS011;16861;52.294;7.760;2024-01-16T08:03:07;14.05;;;7.88;;
30020;SDS011;16861;52.294;7.760;2024-01-16T08:05:38;12.38;;;6.97;;
30020;SDS011;16861;52.294;7.760;2024-01-16T08:08:08;13.48;;;7.18;;
30020;SDS011;16861;52.294;7.760;2024-01-16T08:10:36;16.13;;;7.75;;
30020;SDS011;16861;52.294;7.760;2024-01-16T08:13:03;16.83;;;7.15;;
30020;SDS011;16861;52.294;7.760;2024-01-16T08:15:29;10.60;;;6.80;;
30020;SDS011;16861;52.294;7.760;2024-01-16T08:17:56;12.65;;;6.50;;
30020;SDS011;16861;52.294;7.760;2024-01-16T08:20:23;11.65;;;5.95;;
30020;SDS011;16861;52.294;7.760;2024-01-16T08:22:53;13.63;;;6.43;;
30020;SDS011;16861;52.294;7.760;2024-01-16T08:25:19;15.57;;;6.22;;
30020;SDS011;16861;52.294;7.760;2024-01-16T08:27:46;11.60;;;7.03;;
30020;SDS011;16861;52.294;7.760;2024-01-16T08:30:12;17.75;;;7.50;;
30020;SDS011;16861;52.294;7.760;2024-01-16T08:32:39;12.27;;;7.18;;
30020;SDS011;16861;52.294;7.760;2024-01-16T08:35:06;11.35;;;6.60;;
30020;SDS011;16861;52.294;7.760;2024-01-16T08:37:33;14.25;;;6.57;;
30020;SDS011;16861;52.294;7.760;2024-01-16T08:40:00;17.08;;;6.82;;
30020;SDS011;16861;52.294;7.760;2024-01-16T08:42:27;10.65;;;6.38;;
30020;SDS011;16861;52.294;7.760;2024-01-16T08:44:54;13.32;;;7.05;;
30020;SDS011;16861;52.294;7.760;2024-01-16T08:47:20;16.75;;;6.72;;
30020;SDS011;16861;52.294;7.760;2024-01-16T08:49:47;11.43;;;6.38;;
30020;SDS011;16861;52.294;7.760;2024-01-16T08:52:14;12.10;;;6.68;;
30020;SDS011;16861;52.294;7.760;2024-01-16T08:54:41;10.32;;;6.40;;
30020;SDS011;16861;52.294;7.760;2024-01-16T08:57:08;15.38;;;6.78;;
30020;SDS011;16861;52.294;7.760;2024-01-16T08:59:40;16.27;;;6.80;;
30020;SDS011;16861;52.294;7.760;2024-01-16T09:02:07;10.77;;;6.60;;
30020;SDS011;16861;52.294;7.760;2024-01-16T09:04:33;11.48;;;6.70;;
30020;SDS011;16861;52.294;7.760;2024-01-16T09:07:00;12.45;;;7.03;;
30020;SDS011;16861;52.294;7.760;2024-01-16T09:09:27;16.05;;;7.78;;
30020;SDS011;16861;52.294;7.760;2024-01-16T09:11:54;11.35;;;6.68;;
30020;SDS011;16861;52.294;7.760;2024-01-16T09:14:20;15.10;;;7.82;;
30020;SDS011;16861;52.294;7.760;2024-01-16T09:16:47;14.70;;;7.15;;
30020;SDS011;16861;52.294;7.760;2024-01-16T09:19:14;14.63;;;6.90;;
30020;SDS011;16861;52.294;7.760;2024-01-16T09:21:40;14.15;;;7.15;;
30020;SDS011;16861;52.294;7.760;2024-01-16T09:24:07;13.00;;;7.35;;
30020;SDS011;16861;52.294;7.760;2024-01-16T09:26:34;12.25;;;6.88;;
30020;SDS011;16861;52.294;7.760;2024-01-16T09:29:01;14.82;;;7.22;;
30020;SDS011;16861;52.294;7.760;2024-01-16T09:31:27;17.77;;;7.15;;
30020;SDS011;16861;52.294;7.760;2024-01-16T09:33:54;12.38;;;6.88;;
30020;SDS011;16861;52.294;7.760;2024-01-16T09:36:20;12.68;;;6.20;;
30020;SDS011;16861;52.294;7.760;2024-01-16T09:38:47;9.88;;;6.18;;
30020;SDS011;16861;52.294;7.760;2024-01-16T09:41:14;10.95;;;6.15;;
30020;SDS011;16861;52.294;7.760;2024-01-16T09:43:41;13.25;;;6.53;;
30020;SDS011;16861;52.294;7.760;2024-01-16T09:46:08;11.32;;;5.88;;
30020;SDS011;16861;52.294;7.760;2024-01-16T09:48:37;10.23;;;6.55;;
30020;SDS011;16861;52.294;7.760;2024-01-16T09:51:05;10.57;;;5.90;;
30020;SDS011;16861;52.294;7.760;2024-01-16T09:53:31;10.05;;;6.55;;
30020;SDS011;16861;52.294;7.760;2024-01-16T09:56:00;12.50;;;7.30;;
30020;SDS011;16861;52.294;7.760;2024-01-16T09:58:30;15.07;;;6.28;;
30020;SDS011;16861;52.294;7.760;2024-01-16T10:01:00;18.45;;;7.30;;
30020;SDS011;16861;52.294;7.760;2024-01-16T10:03:27;15.00;;;6.88;;
30020;SDS011;16861;52.294;7.760;2024-01-16T10:05:57;11.93;;;6.72;;
30020;SDS011;16861;52.294;7.760;2024-01-16T10:08:27;14.57;;;7.93;;
30020;SDS011;16861;52.294;7.760;2024-01-16T10:10:55;14.35;;;6.82;;
30020;SDS011;16861;52.294;7.760;2024-01-16T10:13:21;10.80;;;7.13;;
30020;SDS011;16861;52.294;7.760;2024-01-16T10:15:51;11.68;;;6.90;;
30020;SDS011;16861;52.294;7.760;2024-01-16T10:18:22;12.13;;;6.80;;
30020;SDS011;16861;52.294;7.760;2024-01-16T10:20:53;14.85;;;7.32;;
30020;SDS011;16861;52.294;7.760;2024-01-16T10:28:33;12.05;;;7.00;;
30020;SDS011;16861;52.294;7.760;2024-01-16T10:31:01;16.17;;;6.80;;
30020;SDS011;16861;52.294;7.760;2024-01-16T10:33:30;12.95;;;6.93;;
30020;SDS011;16861;52.294;7.760;2024-01-16T10:38:42;11.13;;;7.07;;
30020;SDS011;16861;52.294;7.760;2024-01-16T10:41:12;10.48;;;7.07;;
30020;SDS011;16861;52.294;7.760;2024-01-16T10:44:04;13.82;;;7.57;;
30020;SDS011;16861;52.294;7.760;2024-01-16T10:46:33;15.27;;;7.43;;
30020;SDS011;16861;52.294;7.760;2024-01-16T10:49:01;17.35;;;7.88;;
30020;SDS011;16861;52.294;7.760;2024-01-16T10:51:30;16.17;;;7.43;;
30020;SDS011;16861;52.294;7.760;2024-01-16T10:54:04;16.15;;;7.90;;
30020;SDS011;16861;52.294;7.760;2024-01-16T10:56:35;14.80;;;8.07;;
30020;SDS011;16861;52.294;7.760;2024-01-16T11:01:39;17.75;;;8.13;;
30020;SDS011;16861;52.294;7.760;2024-01-16T11:06:41;16.65;;;8.70;;
30020;SDS011;16861;52.294;7.760;2024-01-16T11:09:08;15.82;;;9.10;;
30020;SDS011;16861;52.294;7.760;2024-01-16T11:11:35;15.95;;;9.05;;
30020;SDS011;16861;52.294;7.760;2024-01-16T11:14:04;19.30;;;9.50;;
30020;SDS011;16861;52.294;7.760;2024-01-16T11:16:32;19.30;;;10.05;;
30020;SDS011;16861;52.294;7.760;2024-01-16T11:19:00;20.90;;;10.38;;
30020;SDS011;16861;52.294;7.760;2024-01-16T11:21:50;16.15;;;10.43;;
30020;SDS011;16861;52.294;7.760;2024-01-16T11:24:17;19.45;;;11.15;;
30020;SDS011;16861;52.294;7.760;2024-01-16T11:26:44;15.43;;;10.80;;
30020;SDS011;16861;52.294;7.760;2024-01-16T11:31:54;23.93;;;11.93;;
30020;SDS011;16861;52.294;7.760;2024-01-16T11:37:08;23.75;;;12.20;;
30020;SDS011;16861;52.294;7.760;2024-01-16T11:39:38;24.52;;;12.43;;
30020;SDS011;16861;52.294;7.760;2024-01-16T11:42:06;21.90;;;12.93;;
30020;SDS011;16861;52.294;7.760;2024-01-16T11:44:48;23.60;;;13.98;;
30020;SDS011;16861;52.294;7.760;2024-01-16T11:47:21;21.85;;;13.85;;
30020;SDS011;16861;52.294;7.760;2024-01-16T11:49:51;20.70;;;12.77;;
30020;SDS011;16861;52.294;7.760;2024-01-16T11:58:05;20.20;;;13.18;;
30020;SDS011;16861;52.294;7.760;2024-01-16T12:00:52;20.67;;;12.45;;
30020;SDS011;16861;52.294;7.760;2024-01-16T12:03:22;22.08;;;12.23;;
30020;SDS011;16861;52.294;7.760;2024-01-16T12:06:00;23.52;;;12.90;;
30020;SDS011;16861;52.294;7.760;2024-01-16T12:08:29;22.05;;;12.57;;
30020;SDS011;16861;52.294;7.760;2024-01-16T12:10:56;24.95;;;12.50;;
30020;SDS011;16861;52.294;7.760;2024-01-16T12:13:24;18.98;;;11.57;;
30020;SDS011;16861;52.294;7.760;2024-01-16T12:16:03;20.67;;;11.30;;
30020;SDS011;16861;52.294;7.760;2024-01-16T12:25:30;19.98;;;9.68;;
30020;SDS011;16861;52.294;7.760;2024-01-16T12:28:17;18.48;;;9.35;;
30020;SDS011;16861;52.294;7.760;2024-01-16T12:30:57;21.90;;;9.18;;
30020;SDS011;16861;52.294;7.760;2024-01-16T12:33:24;17.67;;;9.23;;
30020;SDS011;16861;52.294;7.760;2024-01-16T12:35:59;19.17;;;8.88;;
30020;SDS011;16861;52.294;7.760;2024-01-16T12:38:28;17.67;;;8.98;;
30020;SDS011;16861;52.294;7.760;2024-01-16T12:40:55;13.10;;;7.90;;
30020;SDS011;16861;52.294;7.760;2024-01-16T12:43:22;17.67;;;7.90;;
30020;SDS011;16861;52.294;7.760;2024-01-16T12:45:57;15.90;;;7.40;;
30020;SDS011;16861;52.294;7.760;2024-01-16T12:48:25;13.80;;;7.18;;
30020;SDS011;16861;52.294;7.760;2024-01-16T12:50:59;13.20;;;6.82;;
30020;SDS011;16861;52.294;7.760;2024-01-16T12:53:29;15.05;;;6.45;;
30020;SDS011;16861;52.294;7.760;2024-01-16T12:55:58;14.57;;;6.65;;
30020;SDS011;16861;52.294;7.760;2024-01-16T12:58:31;17.55;;;7.15;;
30020;SDS011;16861;52.294;7.760;2024-01-16T13:04:04;17.55;;;6.10;;
30020;SDS011;16861;52.294;7.760;2024-01-16T13:06:30;13.88;;;5.85;;
30020;SDS011;16861;52.294;7.760;2024-01-16T13:09:07;20.02;;;6.75;;
30020;SDS011;16861;52.294;7.760;2024-01-16T13:14:21;14.55;;;6.00;;
30020;SDS011;16861;52.294;7.760;2024-01-16T13:16:49;10.82;;;5.28;;
30020;SDS011;16861;52.294;7.760;2024-01-16T13:19:19;16.67;;;6.32;;
30020;SDS011;16861;52.294;7.760;2024-01-16T13:21:49;19.15;;;6.05;;
30020;SDS011;16861;52.294;7.760;2024-01-16T13:24:16;20.63;;;6.82;;
30020;SDS011;16861;52.294;7.760;2024-01-16T13:26:46;11.88;;;5.28;;
30020;SDS011;16861;52.294;7.760;2024-01-16T13:29:13;14.43;;;6.40;;
30020;SDS011;16861;52.294;7.760;2024-01-16T13:31:40;9.65;;;5.32;;
30020;SDS011;16861;52.294;7.760;2024-01-16T13:34:06;12.13;;;6.10;;
30020;SDS011;16861;52.294;7.760;2024-01-16T13:36:33;25.90;;;6.10;;
30020;SDS011;16861;52.294;7.760;2024-01-16T13:39:20;8.73;;;5.22;;
30020;SDS011;16861;52.294;7.760;2024-01-16T13:41:46;17.55;;;6.15;;
30020;SDS011;16861;52.294;7.760;2024-01-16T13:44:13;19.55;;;5.68;;
30020;SDS011;16861;52.294;7.760;2024-01-16T13:46:40;16.35;;;5.78;;
30020;SDS011;16861;52.294;7.760;2024-01-16T13:49:26;11.02;;;5.32;;
30020;SDS011;16861;52.294;7.760;2024-01-16T13:51:53;16.67;;;5.15;;
30020;SDS011;16861;52.294;7.760;2024-01-16T13:54:19;10.50;;;5.15;;
30020;SDS011;16861;52.294;7.760;2024-01-16T13:56:46;13.75;;;5.25;;
30020;SDS011;16861;52.294;7.760;2024-01-16T13:59:31;10.90;;;4.97;;
30020;SDS011;16861;52.294;7.760;2024-01-16T14:01:58;10.82;;;5.07;;
30020;SDS011;16861;52.294;7.760;2024-01-16T14:04:24;15.02;;;5.47;;
30020;SDS011;16861;52.294;7.760;2024-01-16T14:06:51;9.52;;;5.28;;
30020;SDS011;16861;52.294;7.760;2024-01-16T14:09:37;17.73;;;5.88;;
30020;SDS011;16861;52.294;7.760;2024-01-16T14:12:04;15.70;;;6.00;;
30020;SDS011;16861;52.294;7.760;2024-01-16T14:14:34;12.95;;;5.50;;
30020;SDS011;16861;52.294;7.760;2024-01-16T14:17:02;12.20;;;5.80;;
30020;SDS011;16861;52.294;7.760;2024-01-16T14:19:29;16.73;;;5.40;;
30020;SDS011;16861;52.294;7.760;2024-01-16T14:21:57;14.20;;;5.55;;
30020;SDS011;16861;52.294;7.760;2024-01-16T14:24:24;11.07;;;5.30;;
30020;SDS011;16861;52.294;7.760;2024-01-16T14:26:51;10.55;;;5.03;;
30020;SDS011;16861;52.294;7.760;2024-01-16T14:29:17;12.63;;;4.72;;
30020;SDS011;16861;52.294;7.760;2024-01-16T14:31:45;10.07;;;4.72;;
30020;SDS011;16861;52.294;7.760;2024-01-16T14:34:15;9.85;;;4.75;;
30020;SDS011;16861;52.294;7.760;2024-01-16T14:36:42;13.55;;;4.90;;
30020;SDS011;16861;52.294;7.760;2024-01-16T14:39:09;11.73;;;5.07;;
30020;SDS011;16861;52.294;7.760;2024-01-16T14:41:39;10.85;;;3.70;;
30020;SDS011;16861;52.294;7.760;2024-01-16T14:44:08;7.72;;;3.85;;
30020;SDS011;16861;52.294;7.760;2024-01-16T14:46:36;10.02;;;4.05;;
30020;SDS011;16861;52.294;7.760;2024-01-16T14:49:02;8.82;;;3.92;;
30020;SDS011;16861;52.294;7.760;2024-01-16T14:51:29;8.68;;;4.43;;
30020;SDS011;16861;52.294;7.760;2024-01-16T14:53:56;8.65;;;4.60;;
30020;SDS011;16861;52.294;7.760;2024-01-16T14:56:23;9.40;;;4.70;;
30020;SDS011;16861;52.294;7.760;2024-01-16T14:58:50;8.13;;;4.22;;
30020;SDS011;16861;52.294;7.760;2024-01-16T15:01:17;13.25;;;4.05;;
30020;SDS011;16861;52.294;7.760;2024-01-16T15:03:44;11.18;;;4.30;;
30020;SDS011;16861;52.294;7.760;2024-01-16T15:06:11;10.18;;;4.28;;
30020;SDS011;16861;52.294;7.760;2024-01-16T15:08:39;8.82;;;4.72;;
30020;SDS011;16861;52.294;7.760;2024-01-16T15:11:06;10.52;;;4.55;;
30020;SDS011;16861;52.294;7.760;2024-01-16T15:13:33;13.15;;;4.60;;
30020;SDS011;16861;52.294;7.760;2024-01-16T15:16:01;10.23;;;4.28;;
30020;SDS011;16861;52.294;7.760;2024-01-16T15:18:28;7.55;;;4.35;;
30020;SDS011;16861;52.294;7.760;2024-01-16T15:20:55;9.82;;;4.72;;